Time;durP1;ratioP1;P1;durP2;ratioP2;P2;SDS_P1;SDS_P2;PMS_P1;PMS_P2;Temp;Humidity;BMP_temperature;BMP_pressure;BME280_temperature;BME280_humidity;BME280_pressure;Samples;Min_cycle;Max_cycle;Signal;HPM_P1;HPM_P2
2022/09/08 00:00:48;;;;;;;3.47;1.60;;;24.00;63.40;;;;;;4460644;32;20176;-70
2022/09/08 00:03:17;;;;;;;1.77;1.38;;;24.00;63.40;;;;;;4460528;32;20128;-71
2022/09/08 00:06:01;;;;;;;2.80;1.38;;;23.90;63.30;;;;;;4460902;32;20092;-73
2022/09/08 00:08:28;;;;;;;2.30;1.25;;;24.00;63.30;;;;;;4460771;32;20408;-70
2022/09/08 00:10:58;;;;;;;2.10;1.48;;;23.90;63.30;;;;;;4460711;32;20108;-70
2022/09/08 00:13:27;;;;;;;1.90;1.35;;;23.90;63.30;;;;;;4446891;32;20114;-70
2022/09/08 00:15:54;;;;;;;2.72;1.35;;;23.90;63.30;;;;;;4460737;32;20129;-70
2022/09/08 00:18:20;;;;;;;2.13;1.15;;;23.90;63.30;;;;;;4460669;32;20081;-70
2022/09/08 00:20:46;;;;;;;2.13;1.33;;;23.90;63.30;;;;;;4460411;32;20082;-70
2022/09/08 00:23:12;;;;;;;3.20;1.40;;;23.90;63.20;;;;;;4460321;32;20085;-70
2022/09/08 00:25:38;;;;;;;1.92;1.42;;;23.90;63.20;;;;;;4447074;32;20077;-70
2022/09/08 00:28:04;;;;;;;2.38;1.10;;;23.90;63.20;;;;;;4460685;32;20113;-70
2022/09/08 00:30:31;;;;;;;4.47;1.50;;;23.90;63.20;;;;;;4446749;32;20499;-70
2022/09/08 00:32:57;;;;;;;2.30;1.48;;;23.90;63.20;;;;;;4446659;32;20074;-70
2022/09/08 00:35:23;;;;;;;1.90;1.33;;;23.90;63.20;;;;;;4460278;32;20124;-70
2022/09/08 00:37:52;;;;;;;1.88;1.48;;;23.90;63.20;;;;;;4460209;32;20066;-70
2022/09/08 00:40:19;;;;;;;1.42;1.30;;;23.90;63.20;;;;;;4460294;32;20163;-70
2022/09/08 00:42:44;;;;;;;2.13;1.33;;;23.90;63.20;;;;;;4460664;32;20133;-70
2022/09/08 00:45:15;;;;;;;1.83;1.30;;;23.90;63.10;;;;;;4460748;32;20078;-70
2022/09/08 00:47:46;;;;;;;2.20;1.52;;;23.90;63.10;;;;;;4460599;32;20078;-70
2022/09/08 00:50:19;;;;;;;1.38;1.23;;;23.80;63.10;;;;;;4460785;32;20158;-70
2022/09/08 00:52:50;;;;;;;2.25;1.23;;;23.80;63.00;;;;;;4460511;32;20600;-70
2022/09/08 00:55:17;;;;;;;3.00;1.40;;;23.80;63.10;;;;;;4461946;32;20550;-70
2022/09/08 00:57:42;;;;;;;1.30;1.20;;;23.80;63.00;;;;;;4463529;32;20095;-70
2022/09/08 01:00:12;;;;;;;1.73;1.20;;;23.80;63.00;;;;;;4463599;32;20081;-70
2022/09/08 01:02:39;;;;;;;1.42;1.25;;;23.80;63.00;;;;;;4463345;32;20094;-70
2022/09/08 01:05:12;;;;;;;2.60;1.40;;;23.80;63.00;;;;;;4463182;32;20069;-70
2022/09/08 01:13:25;;;;;;;1.52;1.35;;;23.80;62.90;;;;;;4451784;32;20430;-70
2022/09/08 01:15:51;;;;;;;1.40;1.15;;;23.80;62.90;;;;;;4463461;32;20077;-70
2022/09/08 01:18:17;;;;;;;1.77;1.30;;;23.80;62.90;;;;;;4463221;32;20093;-70
2022/09/08 01:21:03;;;;;;;2.05;1.27;;;23.80;62.90;;;;;;4463253;32;20112;-70
2022/09/08 01:23:53;;;;;;;1.10;1.00;;;23.80;62.90;;;;;;4463571;32;20078;-70
2022/09/08 01:26:25;;;;;;;2.03;1.17;;;23.80;62.90;;;;;;4463243;32;20062;-70
2022/09/08 01:28:59;;;;;;;1.73;1.20;;;23.80;62.90;;;;;;4463234;32;20117;-70
2022/09/08 01:31:26;;;;;;;2.45;1.40;;;23.80;62.90;;;;;;4463391;32;20499;-70
2022/09/08 01:33:53;;;;;;;1.48;1.30;;;23.80;62.90;;;;;;4462730;32;20089;-70
2022/09/08 01:36:19;;;;;;;1.75;1.33;;;23.80;62.90;;;;;;4463222;32;20118;-70
2022/09/08 01:38:45;;;;;;;1.55;1.40;;;23.80;62.90;;;;;;4462882;32;20427;-70
2022/09/08 01:41:13;;;;;;;1.08;0.90;;;23.80;62.90;;;;;;4462855;32;20503;-70
2022/09/08 01:43:39;;;;;;;2.03;1.27;;;23.80;62.90;;;;;;4462870;32;20163;-70
2022/09/08 01:46:05;;;;;;;1.42;1.30;;;23.80;62.80;;;;;;4448699;32;20224;-70
2022/09/08 01:48:31;;;;;;;1.85;1.20;;;23.70;62.70;;;;;;4462606;32;20072;-70
2022/09/08 01:50:59;;;;;;;1.20;1.00;;;23.80;62.80;;;;;;4462982;32;20476;-70
2022/09/08 01:53:26;;;;;;;1.70;1.38;;;23.70;62.70;;;;;;4448743;32;20243;-70
2022/09/08 01:55:51;;;;;;;2.38;1.50;;;23.70;62.70;;;;;;4462688;32;20171;-70
2022/09/08 01:58:17;;;;;;;1.67;1.25;;;23.70;62.70;;;;;;4462862;32;20062;-70
2022/09/08 02:00:43;;;;;;;2.95;1.45;;;23.70;62.70;;;;;;4462640;32;20612;-70
2022/09/08 02:03:11;;;;;;;1.65;1.10;;;23.70;62.70;;;;;;4462856;32;20096;-70
2022/09/08 02:05:39;;;;;;;2.00;1.33;;;23.70;62.70;;;;;;4462432;32;20614;-71
2022/09/08 02:08:06;;;;;;;1.27;1.17;;;23.70;62.70;;;;;;4448412;32;20101;-70
2022/09/08 02:10:31;;;;;;;1.55;1.40;;;23.70;62.70;;;;;;4462497;32;20066;-70
2022/09/08 02:12:57;;;;;;;1.80;1.40;;;23.70;62.70;;;;;;4462495;32;20120;-70
2022/09/08 02:15:24;;;;;;;1.75;1.20;;;23.70;62.70;;;;;;4462467;32;20109;-70
2022/09/08 02:17:50;;;;;;;1.75;1.20;;;23.70;62.70;;;;;;4462653;32;20096;-72
2022/09/08 02:20:16;;;;;;;1.42;1.15;;;23.70;62.60;;;;;;4462422;32;20132;-71
2022/09/08 02:22:43;;;;;;;2.78;1.25;;;23.70;63.50;;;;;;4462470;32;20369;-70
2022/09/08 02:25:08;;;;;;;1.23;1.10;;;23.70;62.60;;;;;;4462312;32;20521;-70
2022/09/08 02:27:34;;;;;;;2.17;1.30;;;23.70;62.60;;;;;;4448001;32;20090;-70
2022/09/08 02:30:00;;;;;;;1.30;1.20;;;23.70;62.60;;;;;;4462513;32;20054;-70
2022/09/08 02:32:27;;;;;;;1.23;1.10;;;23.60;62.50;;;;;;4462396;32;20084;-70
2022/09/08 02:34:53;;;;;;;1.23;1.00;;;23.70;63.50;;;;;;4462106;32;20066;-70
2022/09/08 02:37:20;;;;;;;1.30;1.20;;;23.70;62.60;;;;;;4461795;32;20082;-70
2022/09/08 02:39:45;;;;;;;1.20;1.10;;;23.60;62.50;;;;;;4462070;32;20523;-70
2022/09/08 02:42:11;;;;;;;1.67;1.30;;;23.60;62.50;;;;;;4462126;32;20246;-70
2022/09/08 02:44:38;;;;;;;2.63;1.40;;;23.70;62.60;;;;;;4462215;32;20076;-73
2022/09/08 02:47:04;;;;;;;2.63;1.40;;;23.60;62.50;;;;;;4461698;32;20113;-70
2022/09/08 02:49:32;;;;;;;1.35;1.15;;;23.60;62.50;;;;;;4462121;32;20062;-70
2022/09/08 02:51:58;;;;;;;2.10;1.25;;;23.60;62.50;;;;;;4461876;32;20069;-70
2022/09/08 02:54:24;;;;;;;1.45;1.10;;;23.60;62.50;;;;;;4462323;32;20124;-70
2022/09/08 02:56:50;;;;;;;1.20;1.00;;;23.60;62.50;;;;;;4461643;32;20062;-70
2022/09/08 02:59:17;;;;;;;1.10;1.00;;;23.60;62.50;;;;;;4461818;32;20089;-70
2022/09/08 03:01:46;;;;;;;1.73;1.23;;;23.60;62.50;;;;;;4461728;32;20431;-70
2022/09/08 03:04:13;;;;;;;1.15;1.05;;;23.60;62.50;;;;;;4462075;32;20490;-70
2022/09/08 03:06:39;;;;;;;1.60;0.90;;;23.60;62.50;;;;;;4461654;32;20114;-70
2022/09/08 03:09:06;;;;;;;1.33;1.10;;;23.60;62.40;;;;;;4461562;32;20633;-70
2022/09/08 03:11:33;;;;;;;1.63;1.40;;;23.60;62.50;;;;;;4461703;32;20137;-70
2022/09/08 03:14:00;;;;;;;1.40;1.30;;;23.60;62.50;;;;;;4461818;32;20514;-70
2022/09/08 03:16:27;;;;;;;1.35;1.00;;;23.60;62.40;;;;;;4461326;32;20070;-70
2022/09/08 03:18:53;;;;;;;1.65;1.27;;;23.60;62.40;;;;;;4461091;32;20171;-70
2022/09/08 03:21:20;;;;;;;1.67;1.25;;;23.60;62.50;;;;;;4461526;32;20078;-70
2022/09/08 03:23:47;;;;;;;1.50;1.40;;;23.60;62.50;;;;;;4461438;32;20081;-70
2022/09/08 03:26:16;;;;;;;1.00;0.90;;;23.60;62.40;;;;;;4461347;32;20159;-70
2022/09/08 03:28:44;;;;;;;1.73;1.23;;;23.60;62.50;;;;;;4461079;32;20171;-70
2022/09/08 03:31:12;;;;;;;2.22;1.30;;;23.60;62.50;;;;;;4461258;32;20062;-70
2022/09/08 03:33:38;;;;;;;1.50;1.20;;;23.60;62.40;;;;;;4460961;32;20180;-70
2022/09/08 03:36:07;;;;;;;1.77;1.10;;;23.60;62.40;;;;;;4461262;32;20247;-71
2022/09/08 03:38:34;;;;;;;1.40;1.30;;;23.60;62.50;;;;;;4460902;32;20097;-70
2022/09/08 03:41:04;;;;;;;1.60;1.20;;;23.60;62.50;;;;;;4461457;32;20061;-70
2022/09/08 03:43:30;;;;;;;1.35;1.15;;;23.60;62.40;;;;;;4461214;32;20077;-70
2022/09/08 03:45:56;;;;;;;1.27;1.13;;;23.50;62.30;;;;;;4461059;32;20239;-70
2022/09/08 03:48:22;;;;;;;1.60;1.30;;;23.60;62.50;;;;;;4460844;32;20066;-70
2022/09/08 03:50:48;;;;;;;1.25;1.13;;;23.60;62.40;;;;;;4461013;32;20085;-70
2022/09/08 03:53:14;;;;;;;1.80;1.30;;;23.60;62.40;;;;;;4460914;32;20627;-70
2022/09/08 03:55:41;;;;;;;1.77;1.23;;;23.60;62.40;;;;;;4460999;32;20062;-70
2022/09/08 03:58:08;;;;;;;1.48;1.30;;;23.50;62.40;;;;;;4460922;32;20482;-71
2022/09/08 04:00:34;;;;;;;1.65;1.55;;;23.50;62.40;;;;;;4460929;32;20073;-70
2022/09/08 04:03:00;;;;;;;1.85;1.20;;;23.50;62.40;;;;;;4447040;32;20096;-70
2022/09/08 04:05:26;;;;;;;1.42;1.13;;;23.50;62.30;;;;;;4460810;32;20104;-70
2022/09/08 04:07:52;;;;;;;1.38;1.13;;;23.50;62.30;;;;;;4446659;32;20074;-70
2022/09/08 04:10:19;;;;;;;1.10;1.00;;;23.50;62.40;;;;;;4460523;32;20120;-70
2022/09/08 04:12:46;;;;;;;1.42;1.33;;;23.50;62.40;;;;;;4460693;32;20510;-70
2022/09/08 04:15:12;;;;;;;2.13;1.20;;;23.50;62.40;;;;;;4460747;32;20096;-70
2022/09/08 04:17:38;;;;;;;2.75;1.27;;;23.50;62.30;;;;;;4460645;32;20365;-70
2022/09/08 04:20:05;;;;;;;1.65;1.40;;;23.50;62.40;;;;;;4460706;32;20113;-70
2022/09/08 04:22:31;;;;;;;0.98;0.98;;;23.50;62.40;;;;;;4460700;32;20073;-70
2022/09/08 04:24:57;;;;;;;1.40;1.30;;;23.50;62.40;;;;;;4460899;32;20592;-70
2022/09/08 04:27:23;;;;;;;1.42;1.00;;;23.50;62.40;;;;;;4460645;32;20129;-70
2022/09/08 04:29:50;;;;;;;1.52;1.27;;;23.50;63.20;;;;;;4460472;32;20092;-70
2022/09/08 04:32:17;;;;;;;1.45;1.10;;;23.50;62.30;;;;;;4460678;32;20091;-70
2022/09/08 04:34:43;;;;;;;1.33;1.17;;;23.50;62.40;;;;;;4460491;32;20081;-71
2022/09/08 04:37:09;;;;;;;1.25;1.08;;;23.50;62.40;;;;;;4460540;32;20109;-70
2022/09/08 04:39:35;;;;;;;1.25;1.15;;;23.50;62.40;;;;;;4460491;32;20069;-70
2022/09/08 04:42:01;;;;;;;1.42;1.15;;;23.50;62.30;;;;;;4460512;32;20488;-70
2022/09/08 04:44:27;;;;;;;1.35;1.25;;;23.50;62.30;;;;;;4460212;32;20085;-70
2022/09/08 04:46:53;;;;;;;1.67;1.13;;;23.50;62.40;;;;;;4460343;32;20095;-70
2022/09/08 04:49:19;;;;;;;1.25;1.15;;;23.50;62.40;;;;;;4460477;32;20073;-70
2022/09/08 04:51:45;;;;;;;1.30;1.20;;;23.50;62.30;;;;;;4460227;32;20509;-70
2022/09/08 04:54:11;;;;;;;1.23;1.13;;;23.50;62.40;;;;;;4460370;32;20077;-70
2022/09/08 04:56:36;;;;;;;1.42;1.10;;;23.40;62.30;;;;;;4460630;32;20107;-70
2022/09/08 04:59:03;;;;;;;1.48;1.30;;;23.40;62.30;;;;;;4460598;32;20062;-70
2022/09/08 05:01:31;;;;;;;1.02;0.98;;;23.40;62.30;;;;;;4460324;32;20089;-70
2022/09/08 05:04:00;;;;;;;1.35;1.00;;;23.40;62.30;;;;;;4460310;32;20248;-70
2022/09/08 05:06:29;;;;;;;1.33;1.15;;;23.40;62.30;;;;;;4460313;32;20085;-70
2022/09/08 05:08:56;;;;;;;1.27;1.17;;;23.50;62.40;;;;;;4459913;32;20583;-70
2022/09/08 05:11:24;;;;;;;1.42;1.33;;;23.40;62.30;;;;;;4460041;32;20082;-70
2022/09/08 05:13:50;;;;;;;1.35;1.25;;;23.40;62.30;;;;;;4460400;32;20223;-70
2022/09/08 05:16:21;;;;;;;1.30;1.20;;;23.50;62.40;;;;;;4460518;32;20066;-70
2022/09/08 05:18:49;;;;;;;1.30;1.10;;;23.40;62.30;;;;;;4460487;32;20406;-70
2022/09/08 05:21:16;;;;;;;1.27;1.10;;;23.40;62.30;;;;;;4460347;32;20104;-70
2022/09/08 05:23:42;;;;;;;0.90;0.90;;;23.40;62.30;;;;;;4460443;32;20203;-71
2022/09/08 05:26:12;;;;;;;1.27;1.17;;;23.40;62.30;;;;;;4460430;32;20078;-70
2022/09/08 05:28:40;;;;;;;1.20;0.98;;;23.40;62.30;;;;;;4460447;32;20496;-70
2022/09/08 05:31:07;;;;;;;1.30;1.20;;;23.40;62.30;;;;;;4460378;32;20074;-70
2022/09/08 05:33:33;;;;;;;2.33;1.10;;;23.40;62.30;;;;;;4460147;32;20412;-70
2022/09/08 05:36:00;;;;;;;1.40;1.02;;;23.40;62.30;;;;;;4460108;32;20512;-72
2022/09/08 05:38:26;;;;;;;1.15;1.00;;;23.40;62.30;;;;;;4460209;32;20207;-70
2022/09/08 05:40:52;;;;;;;0.90;0.90;;;23.40;62.30;;;;;;4446718;32;20089;-70
2022/09/08 05:43:18;;;;;;;1.30;1.20;;;23.40;62.30;;;;;;4462975;32;20082;-70
2022/09/08 05:45:49;;;;;;;1.08;0.98;;;23.40;62.30;;;;;;4448879;32;20105;-70
2022/09/08 05:48:15;;;;;;;0.98;0.98;;;23.40;62.30;;;;;;4462642;32;20082;-70
2022/09/08 05:50:43;;;;;;;1.13;1.10;;;23.40;62.30;;;;;;4463082;32;20171;-70
2022/09/08 05:53:09;;;;;;;1.73;1.20;;;23.40;62.30;;;;;;4463181;32;20246;-70
2022/09/08 05:55:35;;;;;;;1.48;1.38;;;23.40;62.30;;;;;;4462807;32;20113;-70
2022/09/08 05:58:01;;;;;;;1.25;1.02;;;23.40;62.30;;;;;;4462702;32;20535;-70
2022/09/08 06:00:27;;;;;;;1.00;1.00;;;23.40;63.20;;;;;;4462881;32;20062;-70
2022/09/08 06:02:53;;;;;;;1.20;1.10;;;23.40;62.30;;;;;;4448410;32;20176;-70
2022/09/08 06:05:20;;;;;;;1.15;0.90;;;23.40;62.20;;;;;;4462608;32;20511;-70
2022/09/08 06:07:47;;;;;;;1.25;1.10;;;23.40;62.30;;;;;;4462478;32;20506;-70
2022/09/08 06:10:14;;;;;;;1.38;1.27;;;23.40;63.10;;;;;;4462591;32;20085;-70
2022/09/08 06:12:40;;;;;;;1.55;1.20;;;23.40;62.30;;;;;;4462543;32;20062;-70
2022/09/08 06:15:07;;;;;;;1.17;1.08;;;23.40;62.20;;;;;;4462215;32;20141;-70
2022/09/08 06:17:33;;;;;;;1.30;1.02;;;23.40;62.30;;;;;;4448477;32;20081;-70
2022/09/08 06:19:59;;;;;;;3.17;1.20;;;23.40;62.30;;;;;;4462409;32;20081;-70
2022/09/08 06:22:25;;;;;;;3.25;1.80;;;23.40;62.30;;;;;;4462145;32;20106;-70
2022/09/08 06:24:51;;;;;;;4.10;3.10;;;23.40;62.40;;;;;;4462506;32;20109;-71
2022/09/08 06:27:39;;;;;;;4.40;3.63;;;23.40;62.60;;;;;;4461994;32;20540;-71
2022/09/08 06:30:16;;;;;;;16.98;7.15;;;23.30;62.70;;;;;;4462638;32;20113;-70
2022/09/08 06:32:50;;;;;;;10.48;7.82;;;23.30;62.90;;;;;;4462572;32;20093;-71
2022/09/08 06:35:21;;;;;;;6.60;6.00;;;23.30;63.10;;;;;;4461875;32;20505;-71
2022/09/08 06:37:51;;;;;;;9.48;8.60;;;23.30;63.30;;;;;;4462118;32;20062;-70
2022/09/08 06:40:33;;;;;;;10.40;9.50;;;23.30;63.50;;;;;;4462157;32;20094;-71
2022/09/08 06:43:18;;;;;;;12.20;11.00;;;23.30;63.70;;;;;;4462107;32;20167;-71
2022/09/08 06:45:52;;;;;;;15.68;10.05;;;23.30;63.60;;;;;;4462475;32;20377;-71
2022/09/08 06:48:31;;;;;;;10.77;9.68;;;23.30;63.80;;;;;;4461884;32;20082;-71
2022/09/08 06:51:16;;;;;;;10.68;9.07;;;23.30;63.80;;;;;;4462589;32;20086;-71
2022/09/08 06:53:57;;;;;;;12.35;10.00;;;23.30;64.00;;;;;;4461731;32;20144;-70
2022/09/08 06:56:40;;;;;;;12.25;10.95;;;23.30;64.20;;;;;;4462096;32;20422;-73
2022/09/08 06:59:19;;;;;;;15.00;12.90;;;23.30;64.20;;;;;;4462177;32;20271;-71
2022/09/08 07:02:06;;;;;;;12.40;10.63;;;23.30;64.20;;;;;;4461544;32;20073;-69
2022/09/08 07:04:42;;;;;;;12.18;10.85;;;23.30;64.30;;;;;;4461818;32;20141;-70
2022/09/08 07:07:32;;;;;;;11.55;10.48;;;23.30;64.40;;;;;;4461812;32;20069;-70
2022/09/08 07:10:33;;;;;;;12.45;11.15;;;23.30;64.40;;;;;;4461778;32;20085;-69
2022/09/08 07:13:01;;;;;;;12.75;11.50;;;23.30;64.40;;;;;;4445042;32;20088;-69
2022/09/08 07:15:54;;;;;;;17.33;14.45;;;23.30;64.40;;;;;;4461312;32;20073;-69
2022/09/08 07:18:22;;;;;;;17.23;15.52;;;23.30;64.40;;;;;;4443134;32;20573;-68
2022/09/08 07:20:49;;;;;;;19.52;15.93;;;23.30;64.60;;;;;;4461248;32;20498;-70
2022/09/08 07:23:27;;;;;;;18.00;16.20;;;23.20;64.70;;;;;;4447334;32;20124;-69
2022/09/08 07:26:04;;;;;;;17.88;16.13;;;23.30;64.90;;;;;;4460366;32;20569;-67
2022/09/08 07:28:37;;;;;;;19.38;17.48;;;23.20;64.90;;;;;;4461352;32;20085;-68
2022/09/08 07:31:05;;;;;;;21.02;18.85;;;23.20;64.90;;;;;;4461436;32;20435;-69
2022/09/08 07:33:42;;;;;;;23.15;20.38;;;23.20;65.00;;;;;;4461269;32;20492;-70
2022/09/08 07:36:35;;;;;;;21.52;18.23;;;23.20;65.10;;;;;;4447047;32;20082;-71
2022/09/08 07:39:32;;;;;;;20.48;17.80;;;23.20;65.10;;;;;;4461727;32;20069;-70
2022/09/08 07:42:02;;;;;;;20.27;18.13;;;23.20;65.00;;;;;;4461008;32;20181;-71
2022/09/08 07:44:28;;;;;;;20.73;18.65;;;23.20;65.00;;;;;;4461349;32;20070;-70
2022/09/08 07:47:22;;;;;;;19.85;17.65;;;23.20;65.00;;;;;;4460852;32;20163;-71
2022/09/08 07:49:50;;;;;;;23.55;18.77;;;23.20;65.00;;;;;;4460949;32;20084;-71
2022/09/08 07:52:32;;;;;;;20.27;17.10;;;23.20;65.10;;;;;;4460889;32;20093;-71
2022/09/08 07:55:12;;;;;;;19.50;17.58;;;23.20;65.10;;;;;;4460972;32;20089;-70
2022/09/08 07:57:53;;;;;;;18.52;16.63;;;23.20;65.00;;;;;;4461207;32;20163;-70
2022/09/08 08:00:55;;;;;;;16.40;14.77;;;23.20;65.10;;;;;;4461194;32;20070;-70
2022/09/08 08:03:53;;;;;;;16.58;15.00;;;23.20;65.10;;;;;;4460939;32;20154;-70
2022/09/08 08:06:39;;;;;;;16.38;14.70;;;23.20;65.20;;;;;;4441629;32;20077;-71
2022/09/08 08:09:04;;;;;;;20.23;12.77;;;23.20;65.20;;;;;;4460723;32;20102;-71
2022/09/08 08:11:52;;;;;;;14.20;12.75;;;23.20;65.10;;;;;;4460883;32;20101;-71
2022/09/08 08:14:35;;;;;;;14.30;11.88;;;23.20;65.10;;;;;;4460682;32;20546;-71
2022/09/08 08:17:17;;;;;;;13.65;11.57;;;23.20;65.10;;;;;;4460882;32;20440;-70
2022/09/08 08:20:08;;;;;;;14.02;11.95;;;23.20;65.20;;;;;;4460724;32;20089;-71
2022/09/08 08:22:59;;;;;;;12.88;11.65;;;23.30;65.20;;;;;;4460911;32;20223;-72
2022/09/08 08:25:51;;;;;;;15.05;13.50;;;23.20;65.20;;;;;;4446926;32;20106;-72
2022/09/08 08:28:19;;;;;;;16.52;14.80;;;23.30;65.30;;;;;;4460593;32;20215;-72
2022/09/08 08:31:12;;;;;;;16.23;14.65;;;23.30;65.40;;;;;;4460531;32;20140;-72
2022/09/08 08:33:53;;;;;;;16.95;15.15;;;23.30;65.20;;;;;;4460506;32;20104;-71
2022/09/08 08:36:24;;;;;;;16.95;15.25;;;23.30;65.30;;;;;;4460510;32;20184;-72
2022/09/08 08:39:12;;;;;;;15.00;13.50;;;23.20;65.30;;;;;;4460538;32;20499;-71
2022/09/08 08:42:06;;;;;;;16.60;14.52;;;23.20;65.30;;;;;;4460181;32;20081;-72
2022/09/08 08:45:04;;;;;;;15.93;14.30;;;23.20;65.40;;;;;;4460541;32;20089;-72
2022/09/08 08:47:48;;;;;;;14.70;13.30;;;23.20;65.40;;;;;;4460284;32;20093;-72
2022/09/08 08:50:21;;;;;;;16.00;13.23;;;23.20;65.30;;;;;;4460717;32;20081;-71
2022/09/08 08:53:08;;;;;;;15.27;13.65;;;23.20;65.50;;;;;;4460428;32;20066;-70
2022/09/08 08:55:59;;;;;;;16.60;13.57;;;23.20;65.40;;;;;;4446462;32;20066;-71
2022/09/08 08:58:45;;;;;;;13.88;12.48;;;23.20;65.40;;;;;;4460477;32;20097;-70
2022/09/08 09:01:43;;;;;;;13.18;11.88;;;23.20;65.40;;;;;;4460391;32;20089;-70
2022/09/08 09:04:12;;;;;;;13.57;12.18;;;23.20;65.50;;;;;;4460474;32;20081;-70
2022/09/08 09:07:16;;;;;;;13.52;12.23;;;23.20;65.50;;;;;;4460636;32;20069;-69
2022/09/08 09:10:00;;;;;;;12.35;10.80;;;23.20;65.60;;;;;;4460519;32;20074;-70
2022/09/08 09:12:42;;;;;;;13.18;11.98;;;23.20;65.60;;;;;;4460451;32;20411;-70
2022/09/08 09:15:25;;;;;;;12.75;11.48;;;23.20;65.70;;;;;;4460252;32;20101;-70
2022/09/08 09:18:07;;;;;;;;;;;23.20;65.70;;;;;;4450101;32;20078;-70
2022/09/08 09:20:39;;;;;;;12.75;11.05;;;23.20;65.70;;;;;;4463350;32;19974;-72
2022/09/08 09:23:30;;;;;;;13.23;10.93;;;23.10;65.70;;;;;;4463039;32;20117;-70
2022/09/08 09:26:00;;;;;;;12.75;11.05;;;23.20;65.90;;;;;;4463375;32;20474;-70
2022/09/08 09:28:48;;;;;;;11.43;10.32;;;23.20;65.90;;;;;;4463049;32;20616;-70
2022/09/08 09:31:34;;;;;;;10.20;9.30;;;23.20;66.00;;;;;;4463334;32;20085;-72
2022/09/08 09:34:06;;;;;;;10.57;9.23;;;23.20;66.10;;;;;;4463031;32;20392;-71
2022/09/08 09:37:02;;;;;;;9.60;8.63;;;23.20;66.00;;;;;;4449051;32;20227;-70
2022/09/08 09:39:34;;;;;;;11.00;8.20;;;23.20;66.00;;;;;;4463051;32;20518;-70
2022/09/08 09:42:12;;;;;;;8.90;7.95;;;23.20;66.10;;;;;;4462693;32;20085;-70
2022/09/08 09:45:01;;;;;;;8.68;7.57;;;23.20;66.20;;;;;;4462946;32;20136;-70
2022/09/08 09:47:27;;;;;;;9.95;6.18;;;23.20;66.20;;;;;;4462771;32;20458;-69
2022/09/08 09:50:23;;;;;;;7.68;5.82;;;23.20;66.10;;;;;;4462847;32;20081;-71
2022/09/08 09:53:10;;;;;;;9.20;6.07;;;23.20;65.90;;;;;;4462695;32;20078;-71
2022/09/08 09:55:54;;;;;;;7.90;5.68;;;23.20;65.80;;;;;;4462373;32;20136;-70
2022/09/08 09:58:37;;;;;;;6.97;5.57;;;23.20;65.90;;;;;;4462730;32;20103;-71
2022/09/08 10:01:04;;;;;;;;;;;23.20;65.90;;;;;;4449685;32;20080;-74
2022/09/08 10:03:53;;;;;;;5.95;5.28;;;23.20;65.70;;;;;;4462555;32;20100;-71
2022/09/08 10:06:25;;;;;;;6.30;4.43;;;23.20;65.90;;;;;;4462324;32;20061;-70
2022/09/08 10:09:36;;;;;;;5.47;4.40;;;23.20;65.80;;;;;;4448426;32;20403;-70
2022/09/08 10:12:33;;;;;;;9.45;4.25;;;23.20;65.80;;;;;;4462199;32;20066;-70
2022/09/08 10:15:15;;;;;;;4.65;4.15;;;23.20;65.80;;;;;;4462306;32;20078;-70
2022/09/08 10:18:09;;;;;;;3.60;3.30;;;23.20;65.80;;;;;;4462164;32;20600;-70
2022/09/08 10:20:52;;;;;;;5.13;3.70;;;23.20;65.80;;;;;;4462233;32;20102;-70
2022/09/08 10:23:30;;;;;;;4.28;3.22;;;23.20;65.80;;;;;;4462343;32;20086;-70
2022/09/08 10:26:14;;;;;;;3.80;3.50;;;23.20;65.80;;;;;;4462225;32;20577;-70
2022/09/08 10:29:24;;;;;;;3.30;2.97;;;23.20;65.80;;;;;;4462236;32;20396;-71
2022/09/08 10:32:16;;;;;;;3.83;2.70;;;23.20;65.70;;;;;;4462372;32;20128;-70
2022/09/08 10:35:34;;;;;;;2.85;2.55;;;23.20;65.70;;;;;;4432670;32;20601;-70
2022/09/08 10:38:25;;;;;;;4.40;2.70;;;23.20;65.80;;;;;;4449157;32;20491;-70
2022/09/08 10:41:15;;;;;;;3.55;2.83;;;23.20;65.80;;;;;;4461892;32;20074;-70
2022/09/08 10:43:55;;;;;;;3.67;2.53;;;23.20;65.80;;;;;;4462100;32;20074;-70
2022/09/08 10:46:21;;;;;;;4.07;2.63;;;23.20;66.60;;;;;;4447639;32;20183;-73
2022/09/08 10:49:07;;;;;;;2.75;2.20;;;23.20;65.80;;;;;;4462014;32;20394;-71
2022/09/08 10:51:43;;;;;;;2.30;2.10;;;23.20;65.90;;;;;;4461858;32;20074;-71
2022/09/08 10:54:34;;;;;;;4.55;2.20;;;23.10;65.70;;;;;;4462097;32;20073;-70
2022/09/08 10:57:08;;;;;;;4.40;2.22;;;23.10;65.80;;;;;;4462135;32;20085;-70
2022/09/08 10:59:49;;;;;;;2.45;2.10;;;23.10;65.80;;;;;;4462255;32;20085;-70
2022/09/08 11:02:31;;;;;;;3.20;2.30;;;23.20;65.90;;;;;;4461914;32;20065;-70
2022/09/08 11:05:22;;;;;;;4.00;2.08;;;23.10;66.00;;;;;;4462102;32;20084;-70
2022/09/08 11:07:54;;;;;;;3.20;2.00;;;23.10;65.90;;;;;;4461914;32;20096;-71
2022/09/08 11:10:22;;;;;;;4.15;2.25;;;23.10;65.80;;;;;;4461416;32;20109;-70
2022/09/08 11:12:50;;;;;;;4.95;2.22;;;23.10;65.80;;;;;;4461790;32;20090;-70
2022/09/08 11:15:39;;;;;;;2.97;1.95;;;23.10;65.80;;;;;;4461885;32;20078;-69
2022/09/08 11:18:28;;;;;;;2.42;1.73;;;23.10;65.90;;;;;;4461666;32;20101;-70
2022/09/08 11:21:04;;;;;;;3.80;2.03;;;23.10;65.70;;;;;;4461490;32;20482;-70
2022/09/08 11:23:54;;;;;;;4.35;1.83;;;23.10;65.90;;;;;;4461671;32;20212;-69
2022/09/08 11:26:23;;;;;;;3.75;2.00;;;23.10;66.00;;;;;;4461141;32;20388;-69
2022/09/08 11:29:11;;;;;;;1.90;1.73;;;23.10;65.90;;;;;;4461066;32;20077;-69
2022/09/08 11:31:49;;;;;;;5.32;1.77;;;23.10;65.90;;;;;;4461294;32;20128;-69
2022/09/08 11:34:27;;;;;;;3.65;1.80;;;23.10;65.80;;;;;;4461082;32;20081;-69
2022/09/08 11:37:14;;;;;;;2.30;1.73;;;23.10;65.80;;;;;;4461362;32;20085;-70
2022/09/08 11:39:52;;;;;;;2.90;2.03;;;23.10;65.80;;;;;;4460531;32;20558;-69
2022/09/08 11:42:56;;;;;;;3.50;1.75;;;23.10;65.90;;;;;;4461179;32;20160;-69
2022/09/08 11:45:40;;;;;;;1.92;1.65;;;23.10;65.70;;;;;;4461397;32;20070;-70
2022/09/08 11:48:22;;;;;;;3.80;1.85;;;23.10;65.80;;;;;;4460696;32;20128;-70
2022/09/08 11:51:03;;;;;;;5.00;1.60;;;23.10;66.70;;;;;;4461116;32;20081;-71
2022/09/08 11:53:49;;;;;;;7.70;1.98;;;23.10;66.00;;;;;;4460947;32;20066;-71
2022/09/08 11:56:27;;;;;;;4.13;2.25;;;23.10;66.00;;;;;;4461329;32;20240;-70
2022/09/08 11:59:30;;;;;;;1.95;1.63;;;23.10;66.10;;;;;;4461343;32;20168;-70
2022/09/08 12:02:30;;;;;;;2.15;1.58;;;23.10;65.90;;;;;;4446814;32;20102;-71
2022/09/08 12:05:23;;;;;;;3.83;1.90;;;23.10;66.10;;;;;;4461156;32;20542;-70
2022/09/08 12:08:09;;;;;;;3.47;1.90;;;23.10;66.10;;;;;;4460961;32;20094;-70
2022/09/08 12:10:56;;;;;;;4.32;1.85;;;23.10;66.20;;;;;;4460667;32;20137;-71
2022/09/08 12:13:49;;;;;;;4.10;1.75;;;23.10;66.20;;;;;;4460647;32;20155;-71
2022/09/08 12:16:19;;;;;;;3.13;1.90;;;23.10;66.30;;;;;;4460759;32;20121;-70
2022/09/08 12:18:47;;;;;;;2.83;1.52;;;23.10;66.30;;;;;;4460614;32;20058;-70
2022/09/08 12:21:32;;;;;;;5.05;2.10;;;23.10;66.40;;;;;;4460497;32;20543;-70
2022/09/08 12:24:32;;;;;;;3.88;1.52;;;23.10;66.20;;;;;;4460899;32;20499;-71
2022/09/08 12:27:23;;;;;;;3.17;1.70;;;23.10;66.10;;;;;;4448691;32;20081;-70
2022/09/08 12:29:52;;;;;;;2.55;1.60;;;23.10;66.30;;;;;;4460582;32;20215;-71
2022/09/08 12:32:45;;;;;;;3.65;1.60;;;23.10;66.40;;;;;;4460314;32;20074;-70
2022/09/08 12:35:31;;;;;;;2.28;1.33;;;23.10;66.10;;;;;;4460405;32;20073;-71
2022/09/08 12:38:15;;;;;;;1.67;1.17;;;23.10;66.30;;;;;;4460770;32;20105;-72
2022/09/08 12:41:08;;;;;;;3.50;1.63;;;23.10;66.20;;;;;;4460719;32;20088;-71
2022/09/08 12:43:43;;;;;;;3.90;1.20;;;23.10;66.10;;;;;;4460487;32;20084;-71
2022/09/08 12:46:27;;;;;;;3.38;1.15;;;23.10;66.20;;;;;;4460286;32;20634;-71
2022/09/08 12:49:40;;;;;;;3.53;1.48;;;23.10;66.20;;;;;;4460246;32;20092;-70
2022/09/08 12:52:24;;;;;;;3.08;1.13;;;23.10;66.30;;;;;;4428553;32;20121;-70
2022/09/08 12:55:16;;;;;;;2.17;1.10;;;23.10;66.40;;;;;;4463451;32;20081;-70
2022/09/08 12:57:46;;;;;;;3.25;1.40;;;23.10;66.30;;;;;;4463921;32;20062;-70
2022/09/08 13:00:19;;;;;;;2.72;1.25;;;23.10;66.40;;;;;;4463447;32;20132;-70
2022/09/08 13:03:13;;;;;;;3.50;1.30;;;23.10;66.50;;;;;;4463495;32;20066;-69
2022/09/08 13:05:42;;;;;;;;;;;23.10;66.40;;;;;;4464513;32;20077;-70
2022/09/08 13:08:19;;;;;;;;;;;23.10;66.30;;;;;;4463931;32;20036;-70
2022/09/08 13:10:46;;;;;;;;;;;23.10;66.40;;;;;;4464389;32;20084;-70
2022/09/08 13:13:31;;;;;;;;;;;23.00;66.40;;;;;;4463865;32;19974;-71
2022/09/08 13:16:03;;;;;;;;;;;23.10;66.50;;;;;;4463668;32;19966;-70
2022/09/08 13:18:33;;;;;;;;;;;23.00;66.40;;;;;;4464140;32;19986;-70
2022/09/08 13:21:13;;;;;;;;;;;23.00;66.50;;;;;;4464091;32;19992;-71
2022/09/08 13:23:42;;;;;;;;;;;23.00;66.40;;;;;;4463803;32;20092;-70
2022/09/08 13:26:11;;;;;;;;;;;23.00;66.40;;;;;;4464051;32;20366;-70
2022/09/08 13:28:36;;;;;;;;;;;23.00;66.40;;;;;;4464029;32;19986;-71
2022/09/08 13:31:12;;;;;;;;;;;23.00;66.50;;;;;;4463426;32;19968;-70